sensor_id;sensor_type;location;lat;lon;timestamp;pressure;altitude;pressure_sealevel;temperature;humidity
65832;BME280;52593;42.648;23.332;2023-04-22T00:02:04;94235.88;;;7.49;82.44
65832;BME280;52593;42.648;23.332;2023-04-22T00:04:30;94230.13;;;7.29;83.92
65832;BME280;52593;42.648;23.332;2023-04-22T00:06:55;94224.81;;;7.29;83.05
65832;BME280;52593;42.648;23.332;2023-04-22T00:09:21;94231.13;;;7.37;83.01
65832;BME280;52593;42.648;23.332;2023-04-22T00:11:46;94213.69;;;7.26;83.10
65832;BME280;52593;42.648;23.332;2023-04-22T00:14:12;94227.97;;;7.25;83.25
65832;BME280;52593;42.648;23.332;2023-04-22T00:16:37;94213.34;;;7.21;82.88
65832;BME280;52593;42.648;23.332;2023-04-22T00:19:03;94217.81;;;7.37;82.35
65832;BME280;52593;42.648;23.332;2023-04-22T00:21:29;94208.00;;;7.29;81.63
65832;BME280;52593;42.648;23.332;2023-04-22T00:23:55;94225.63;;;7.38;81.64
65832;BME280;52593;42.648;23.332;2023-04-22T00:26:20;94219.88;;;7.10;82.59
65832;BME280;52593;42.648;23.332;2023-04-22T00:28:46;94213.84;;;7.24;82.49
65832;BME280;52593;42.648;23.332;2023-04-22T00:31:11;94213.34;;;7.29;82.04
65832;BME280;52593;42.648;23.332;2023-04-22T00:33:37;94217.00;;;7.28;81.97
65832;BME280;52593;42.648;23.332;2023-04-22T00:36:02;94215.66;;;7.24;82.46
65832;BME280;52593;42.648;23.332;2023-04-22T00:38:28;94213.88;;;7.16;81.93
65832;BME280;52593;42.648;23.332;2023-04-22T00:40:53;94231.66;;;7.16;82.12
65832;BME280;52593;42.648;23.332;2023-04-22T00:43:19;94222.88;;;7.07;82.06
65832;BME280;52593;42.648;23.332;2023-04-22T00:45:45;94226.88;;;6.94;82.57
65832;BME280;52593;42.648;23.332;2023-04-22T00:48:12;94222.91;;;6.82;83.73
65832;BME280;52593;42.648;23.332;2023-04-22T00:50:37;94223.19;;;7.12;82.40
65832;BME280;52593;42.648;23.332;2023-04-22T00:53:02;94228.81;;;7.25;82.26
65832;BME280;52593;42.648;23.332;2023-04-22T00:55:28;94237.47;;;7.19;82.92
65832;BME280;52593;42.648;23.332;2023-04-22T00:57:54;94242.50;;;6.97;83.45
65832;BME280;52593;42.648;23.332;2023-04-22T01:00:22;94246.03;;;6.82;84.19
65832;BME280;52593;42.648;23.332;2023-04-22T01:02:52;94249.19;;;6.77;84.24
65832;BME280;52593;42.648;23.332;2023-04-22T01:05:18;94249.19;;;6.85;84.76
65832;BME280;52593;42.648;23.332;2023-04-22T01:07:44;94234.59;;;6.65;84.71
65832;BME280;52593;42.648;23.332;2023-04-22T01:10:09;94248.03;;;6.71;84.25
65832;BME280;52593;42.648;23.332;2023-04-22T01:12:35;94231.22;;;6.46;84.52
65832;BME280;52593;42.648;23.332;2023-04-22T01:15:01;94244.34;;;6.48;85.36
65832;BME280;52593;42.648;23.332;2023-04-22T01:17:26;94239.72;;;6.50;84.82
65832;BME280;52593;42.648;23.332;2023-04-22T01:19:52;94250.38;;;6.50;85.26
65832;BME280;52593;42.648;23.332;2023-04-22T01:22:20;94239.38;;;6.45;85.25
65832;BME280;52593;42.648;23.332;2023-04-22T01:24:47;94247.34;;;6.36;86.25
65832;BME280;52593;42.648;23.332;2023-04-22T01:27:13;94251.84;;;6.44;87.29
65832;BME280;52593;42.648;23.332;2023-04-22T01:29:38;94234.22;;;6.43;87.11
65832;BME280;52593;42.648;23.332;2023-04-22T01:32:04;94251.19;;;6.50;87.93
65832;BME280;52593;42.648;23.332;2023-04-22T01:34:30;94240.38;;;6.43;87.45
65832;BME280;52593;42.648;23.332;2023-04-22T01:36:56;94248.19;;;6.37;87.79
65832;BME280;52593;42.648;23.332;2023-04-22T01:39:22;94242.69;;;6.38;87.75
65832;BME280;52593;42.648;23.332;2023-04-22T01:41:47;94244.69;;;6.36;87.62
65832;BME280;52593;42.648;23.332;2023-04-22T01:44:13;94244.38;;;6.31;87.93
65832;BME280;52593;42.648;23.332;2023-04-22T01:46:39;94240.38;;;6.27;87.74
65832;BME280;52593;42.648;23.332;2023-04-22T01:49:04;94233.56;;;6.24;88.54
65832;BME280;52593;42.648;23.332;2023-04-22T01:51:29;94227.25;;;6.25;88.28
65832;BME280;52593;42.648;23.332;2023-04-22T01:53:55;94228.41;;;6.23;88.97
65832;BME280;52593;42.648;23.332;2023-04-22T01:56:21;94239.22;;;6.30;89.35
65832;BME280;52593;42.648;23.332;2023-04-22T01:58:46;94235.56;;;6.31;90.23
65832;BME280;52593;42.648;23.332;2023-04-22T02:01:12;94232.06;;;6.38;89.89
65832;BME280;52593;42.648;23.332;2023-04-22T02:03:38;94229.25;;;6.40;89.69
65832;BME280;52593;42.648;23.332;2023-04-22T02:06:04;94245.03;;;6.50;89.50
65832;BME280;52593;42.648;23.332;2023-04-22T02:08:29;94246.69;;;6.51;89.64
65832;BME280;52593;42.648;23.332;2023-04-22T02:10:55;94240.22;;;6.70;89.05
65832;BME280;52593;42.648;23.332;2023-04-22T02:13:20;94233.41;;;6.67;88.59
65832;BME280;52593;42.648;23.332;2023-04-22T02:15:46;94227.75;;;6.54;89.10
65832;BME280;52593;42.648;23.332;2023-04-22T02:18:11;94235.88;;;6.69;89.30
65832;BME280;52593;42.648;23.332;2023-04-22T02:20:37;94236.38;;;6.64;88.77
65832;BME280;52593;42.648;23.332;2023-04-22T02:23:02;94228.75;;;6.69;88.80
65832;BME280;52593;42.648;23.332;2023-04-22T02:25:28;94230.56;;;6.69;88.27
65832;BME280;52593;42.648;23.332;2023-04-22T02:27:54;94226.91;;;6.70;88.42
65832;BME280;52593;42.648;23.332;2023-04-22T02:30:20;94226.59;;;6.65;88.81
65832;BME280;52593;42.648;23.332;2023-04-22T02:32:45;94233.75;;;6.72;88.76
65832;BME280;52593;42.648;23.332;2023-04-22T02:35:11;94238.72;;;6.75;89.25
65832;BME280;52593;42.648;23.332;2023-04-22T02:37:37;94225.41;;;6.67;88.29
65832;BME280;52593;42.648;23.332;2023-04-22T02:40:03;94245.88;;;6.83;87.67
65832;BME280;52593;42.648;23.332;2023-04-22T02:42:29;94231.09;;;6.72;87.90
65832;BME280;52593;42.648;23.332;2023-04-22T02:44:54;94232.56;;;6.75;87.46
65832;BME280;52593;42.648;23.332;2023-04-22T02:47:20;94237.88;;;6.83;87.00
65832;BME280;52593;42.648;23.332;2023-04-22T02:49:46;94239.22;;;6.79;87.28
65832;BME280;52593;42.648;23.332;2023-04-22T02:52:11;94248.69;;;6.82;87.70
65832;BME280;52593;42.648;23.332;2023-04-22T02:54:37;94251.34;;;6.82;87.45
65832;BME280;52593;42.648;23.332;2023-04-22T02:57:02;94255.53;;;6.68;88.22
65832;BME280;52593;42.648;23.332;2023-04-22T02:59:28;94254.50;;;6.77;88.26
65832;BME280;52593;42.648;23.332;2023-04-22T03:01:53;94250.81;;;6.94;87.74
65832;BME280;52593;42.648;23.332;2023-04-22T03:04:18;94247.50;;;6.84;86.96
65832;BME280;52593;42.648;23.332;2023-04-22T03:06:47;94263.50;;;6.68;88.29
65832;BME280;52593;42.648;23.332;2023-04-22T03:09:12;94244.03;;;6.59;88.61
65832;BME280;52593;42.648;23.332;2023-04-22T03:11:38;94259.47;;;6.55;89.09
65832;BME280;52593;42.648;23.332;2023-04-22T03:14:03;94260.66;;;6.53;89.27
65832;BME280;52593;42.648;23.332;2023-04-22T03:16:29;94249.53;;;6.33;89.61
65832;BME280;52593;42.648;23.332;2023-04-22T03:18:54;94252.84;;;6.27;90.09
65832;BME280;52593;42.648;23.332;2023-04-22T03:21:19;94258.31;;;6.33;89.93
65832;BME280;52593;42.648;23.332;2023-04-22T03:23:45;94256.66;;;6.40;89.69
65832;BME280;52593;42.648;23.332;2023-04-22T03:26:10;94258.31;;;6.33;89.88
65832;BME280;52593;42.648;23.332;2023-04-22T03:28:37;94264.63;;;6.40;90.14
65832;BME280;52593;42.648;23.332;2023-04-22T03:31:03;94265.63;;;6.31;90.22
65832;BME280;52593;42.648;23.332;2023-04-22T03:33:28;94260.81;;;6.35;90.14
65832;BME280;52593;42.648;23.332;2023-04-22T03:35:53;94253.50;;;6.20;90.53
65832;BME280;52593;42.648;23.332;2023-04-22T03:38:19;94272.91;;;6.21;91.20
65832;BME280;52593;42.648;23.332;2023-04-22T03:40:44;94279.38;;;6.18;91.45
65832;BME280;52593;42.648;23.332;2023-04-22T03:43:10;94267.28;;;6.16;91.32
65832;BME280;52593;42.648;23.332;2023-04-22T03:45:35;94267.59;;;6.21;91.20
65832;BME280;52593;42.648;23.332;2023-04-22T03:48:01;94271.59;;;6.25;90.73
65832;BME280;52593;42.648;23.332;2023-04-22T03:50:26;94282.56;;;6.30;90.79
65832;BME280;52593;42.648;23.332;2023-04-22T03:52:51;94262.94;;;6.15;91.09
65832;BME280;52593;42.648;23.332;2023-04-22T03:55:17;94270.09;;;6.14;91.31
65832;BME280;52593;42.648;23.332;2023-04-22T03:57:42;94272.75;;;6.14;92.03
65832;BME280;52593;42.648;23.332;2023-04-22T04:00:08;94276.88;;;6.17;91.34
65832;BME280;52593;42.648;23.332;2023-04-22T04:02:33;94279.56;;;6.25;91.31
65832;BME280;52593;42.648;23.332;2023-04-22T04:04:59;94278.06;;;6.31;90.75
65832;BME280;52593;42.648;23.332;2023-04-22T04:07:24;94285.38;;;6.37;90.54
65832;BME280;52593;42.648;23.332;2023-04-22T04:09:49;94290.53;;;6.38;90.08
65832;BME280;52593;42.648;23.332;2023-04-22T04:12:15;94289.53;;;6.39;90.46
65832;BME280;52593;42.648;23.332;2023-04-22T04:14:40;94276.91;;;6.41;90.36
65832;BME280;52593;42.648;23.332;2023-04-22T04:17:06;94289.22;;;6.42;90.04
65832;BME280;52593;42.648;23.332;2023-04-22T04:19:33;94289.91;;;6.61;89.47
65832;BME280;52593;42.648;23.332;2023-04-22T04:21:58;94292.56;;;6.77;88.61
65832;BME280;52593;42.648;23.332;2023-04-22T04:24:24;94286.91;;;6.81;87.97
65832;BME280;52593;42.648;23.332;2023-04-22T04:26:49;94287.41;;;6.84;87.45
65832;BME280;52593;42.648;23.332;2023-04-22T04:29:15;94291.06;;;7.08;86.79
65832;BME280;52593;42.648;23.332;2023-04-22T04:31:44;94284.25;;;6.97;86.83
65832;BME280;52593;42.648;23.332;2023-04-22T04:34:09;94283.22;;;6.98;87.72
65832;BME280;52593;42.648;23.332;2023-04-22T04:36:35;94287.88;;;7.04;87.88
65832;BME280;52593;42.648;23.332;2023-04-22T04:39:00;94298.84;;;7.26;87.57
65832;BME280;52593;42.648;23.332;2023-04-22T04:41:26;94292.50;;;7.27;86.72
65832;BME280;52593;42.648;23.332;2023-04-22T04:43:52;94311.13;;;7.27;86.58
65832;BME280;52593;42.648;23.332;2023-04-22T04:46:17;94307.44;;;7.36;85.54
65832;BME280;52593;42.648;23.332;2023-04-22T04:48:44;94325.72;;;7.56;85.25
65832;BME280;52593;42.648;23.332;2023-04-22T04:51:10;94327.72;;;7.54;84.81
65832;BME280;52593;42.648;23.332;2023-04-22T04:53:36;94317.72;;;7.56;85.04
65832;BME280;52593;42.648;23.332;2023-04-22T04:56:02;94329.38;;;7.55;84.89
65832;BME280;52593;42.648;23.332;2023-04-22T04:58:28;94332.41;;;7.43;86.27
65832;BME280;52593;42.648;23.332;2023-04-22T05:00:53;94332.06;;;7.46;86.54
65832;BME280;52593;42.648;23.332;2023-04-22T05:03:18;94324.78;;;7.32;87.70
65832;BME280;52593;42.648;23.332;2023-04-22T05:05:44;94309.47;;;7.34;86.46
65832;BME280;52593;42.648;23.332;2023-04-22T05:08:12;94324.38;;;7.52;86.04
65832;BME280;52593;42.648;23.332;2023-04-22T05:10:37;94327.22;;;7.58;86.02
65832;BME280;52593;42.648;23.332;2023-04-22T05:13:03;94323.06;;;7.56;85.37
65832;BME280;52593;42.648;23.332;2023-04-22T05:15:28;94329.53;;;7.53;85.66
65832;BME280;52593;42.648;23.332;2023-04-22T05:17:54;94323.34;;;7.61;84.50
65832;BME280;52593;42.648;23.332;2023-04-22T05:20:19;94327.03;;;7.60;85.40
65832;BME280;52593;42.648;23.332;2023-04-22T05:22:45;94330.16;;;7.72;85.64
65832;BME280;52593;42.648;23.332;2023-04-22T05:25:10;94342.25;;;7.82;84.71
65832;BME280;52593;42.648;23.332;2023-04-22T05:27:36;94329.75;;;7.91;84.18
65832;BME280;52593;42.648;23.332;2023-04-22T05:30:02;94342.03;;;8.09;82.82
65832;BME280;52593;42.648;23.332;2023-04-22T05:32:27;94331.88;;;8.04;82.76
65832;BME280;52593;42.648;23.332;2023-04-22T05:34:52;94339.03;;;8.03;83.47
65832;BME280;52593;42.648;23.332;2023-04-22T05:37:18;94326.56;;;7.96;83.33
65832;BME280;52593;42.648;23.332;2023-04-22T05:39:43;94344.47;;;8.18;82.66
65832;BME280;52593;42.648;23.332;2023-04-22T05:42:09;94350.78;;;8.17;82.83
65832;BME280;52593;42.648;23.332;2023-04-22T05:44:34;94344.91;;;8.30;82.70
65832;BME280;52593;42.648;23.332;2023-04-22T05:46:59;94345.69;;;8.47;81.28
65832;BME280;52593;42.648;23.332;2023-04-22T05:49:25;94337.22;;;8.35;81.02
65832;BME280;52593;42.648;23.332;2023-04-22T05:51:50;94342.06;;;8.32;81.79
65832;BME280;52593;42.648;23.332;2023-04-22T05:54:16;94328.81;;;8.15;81.54
65832;BME280;52593;42.648;23.332;2023-04-22T05:56:41;94341.06;;;8.33;81.16
65832;BME280;52593;42.648;23.332;2023-04-22T05:59:06;94328.47;;;8.58;81.00
65832;BME280;52593;42.648;23.332;2023-04-22T06:01:32;94328.47;;;8.58;80.51
65832;BME280;52593;42.648;23.332;2023-04-22T06:03:57;94324.19;;;8.49;80.86
65832;BME280;52593;42.648;23.332;2023-04-22T06:06:23;94332.41;;;8.31;81.83
65832;BME280;52593;42.648;23.332;2023-04-22T06:08:49;94331.06;;;8.35;82.35
65832;BME280;52593;42.648;23.332;2023-04-22T06:11:14;94327.50;;;8.51;80.85
65832;BME280;52593;42.648;23.332;2023-04-22T06:13:39;94342.63;;;8.59;80.93
65832;BME280;52593;42.648;23.332;2023-04-22T06:16:05;94335.16;;;8.77;80.98
65832;BME280;52593;42.648;23.332;2023-04-22T06:18:30;94326.84;;;8.95;79.13
65832;BME280;52593;42.648;23.332;2023-04-22T06:20:56;94335.50;;;8.97;78.13
65832;BME280;52593;42.648;23.332;2023-04-22T06:23:22;94324.63;;;8.84;77.92
65832;BME280;52593;42.648;23.332;2023-04-22T06:25:47;94337.06;;;8.91;78.09
65832;BME280;52593;42.648;23.332;2023-04-22T06:28:13;94333.84;;;8.96;78.12
65832;BME280;52593;42.648;23.332;2023-04-22T06:30:38;94330.84;;;8.99;77.42
65832;BME280;52593;42.648;23.332;2023-04-22T06:33:03;94339.59;;;9.08;77.52
65832;BME280;52593;42.648;23.332;2023-04-22T06:35:29;94328.78;;;9.24;75.83
65832;BME280;52593;42.648;23.332;2023-04-22T06:37:55;94346.19;;;9.35;74.65
65832;BME280;52593;42.648;23.332;2023-04-22T06:40:20;94337.22;;;9.51;75.19
65832;BME280;52593;42.648;23.332;2023-04-22T06:42:45;94348.44;;;9.61;74.54
65832;BME280;52593;42.648;23.332;2023-04-22T06:45:11;94347.97;;;9.43;74.81
65832;BME280;52593;42.648;23.332;2023-04-22T06:47:40;94341.53;;;9.52;76.19
65832;BME280;52593;42.648;23.332;2023-04-22T06:50:07;94338.78;;;9.60;76.16
65832;BME280;52593;42.648;23.332;2023-04-22T06:52:32;94342.56;;;9.81;74.44
65832;BME280;52593;42.648;23.332;2023-04-22T06:54:58;94331.50;;;9.84;75.60
65832;BME280;52593;42.648;23.332;2023-04-22T06:57:23;94336.41;;;9.95;75.12
65832;BME280;52593;42.648;23.332;2023-04-22T06:59:49;94335.38;;;9.96;74.31
65832;BME280;52593;42.648;23.332;2023-04-22T07:02:15;94351.16;;;10.06;72.08
65832;BME280;52593;42.648;23.332;2023-04-22T07:04:40;94333.38;;;9.98;73.38
65832;BME280;52593;42.648;23.332;2023-04-22T07:07:05;94333.25;;;10.07;73.48
65832;BME280;52593;42.648;23.332;2023-04-22T07:09:31;94332.16;;;10.16;74.14
65832;BME280;52593;42.648;23.332;2023-04-22T07:11:56;94342.13;;;10.37;73.08
65832;BME280;52593;42.648;23.332;2023-04-22T07:14:24;94337.22;;;10.41;72.88
65832;BME280;52593;42.648;23.332;2023-04-22T07:16:51;94338.38;;;10.53;71.50
65832;BME280;52593;42.648;23.332;2023-04-22T07:19:16;94350.75;;;10.54;71.03
65832;BME280;52593;42.648;23.332;2023-04-22T07:21:42;94356.84;;;10.48;71.08
65832;BME280;52593;42.648;23.332;2023-04-22T07:24:07;94335.91;;;10.37;70.54
65832;BME280;52593;42.648;23.332;2023-04-22T07:26:36;94343.19;;;10.28;71.18
65832;BME280;52593;42.648;23.332;2023-04-22T07:29:02;94350.50;;;10.34;71.88
65832;BME280;52593;42.648;23.332;2023-04-22T07:31:28;94351.22;;;10.43;71.69
65832;BME280;52593;42.648;23.332;2023-04-22T07:33:53;94339.22;;;10.53;71.31
65832;BME280;52593;42.648;23.332;2023-04-22T07:36:18;94346.72;;;10.80;70.17
65832;BME280;52593;42.648;23.332;2023-04-22T07:38:44;94344.72;;;10.88;68.15
65832;BME280;52593;42.648;23.332;2023-04-22T07:41:09;94341.75;;;10.98;69.17
65832;BME280;52593;42.648;23.332;2023-04-22T07:43:35;94338.25;;;11.19;68.47
65832;BME280;52593;42.648;23.332;2023-04-22T07:46:01;94351.81;;;11.39;66.14
65832;BME280;52593;42.648;23.332;2023-04-22T07:48:26;94345.16;;;11.35;68.68
65832;BME280;52593;42.648;23.332;2023-04-22T07:50:52;94343.84;;;11.53;67.80
65832;BME280;52593;42.648;23.332;2023-04-22T07:53:17;94340.69;;;11.71;66.09
65832;BME280;52593;42.648;23.332;2023-04-22T07:55:42;94330.25;;;11.83;64.95
65832;BME280;52593;42.648;23.332;2023-04-22T07:58:08;94334.84;;;11.89;63.00
65832;BME280;52593;42.648;23.332;2023-04-22T08:00:33;94336.59;;;11.75;61.18
65832;BME280;52593;42.648;23.332;2023-04-22T08:02:59;94329.28;;;11.62;60.94
65832;BME280;52593;42.648;23.332;2023-04-22T08:05:25;94327.31;;;11.77;60.38
65832;BME280;52593;42.648;23.332;2023-04-22T08:07:50;94328.84;;;11.87;61.37
65832;BME280;52593;42.648;23.332;2023-04-22T08:10:16;94339.28;;;11.75;61.33
65832;BME280;52593;42.648;23.332;2023-04-22T08:12:41;94330.59;;;11.73;62.24
65832;BME280;52593;42.648;23.332;2023-04-22T08:15:07;94320.22;;;11.91;60.97
65832;BME280;52593;42.648;23.332;2023-04-22T08:17:32;94329.97;;;11.99;61.64
65832;BME280;52593;42.648;23.332;2023-04-22T08:19:58;94318.47;;;12.05;60.47
65832;BME280;52593;42.648;23.332;2023-04-22T08:22:23;94317.09;;;12.23;60.07
65832;BME280;52593;42.648;23.332;2023-04-22T08:24:49;94327.69;;;12.38;59.34
65832;BME280;52593;42.648;23.332;2023-04-22T08:27:15;94317.56;;;12.40;58.82
65832;BME280;52593;42.648;23.332;2023-04-22T08:29:40;94310.13;;;12.35;59.01
65832;BME280;52593;42.648;23.332;2023-04-22T08:32:06;94317.56;;;12.40;58.69
65832;BME280;52593;42.648;23.332;2023-04-22T08:34:31;94308.75;;;12.53;57.64
65832;BME280;52593;42.648;23.332;2023-04-22T08:36:57;94313.75;;;12.62;57.01
65832;BME280;52593;42.648;23.332;2023-04-22T08:39:22;94315.81;;;12.74;57.86
65832;BME280;52593;42.648;23.332;2023-04-22T08:41:49;94302.22;;;12.89;57.51
65832;BME280;52593;42.648;23.332;2023-04-22T08:44:15;94310.09;;;12.97;56.69
65832;BME280;52593;42.648;23.332;2023-04-22T08:46:42;94297.31;;;13.06;55.77
65832;BME280;52593;42.648;23.332;2023-04-22T08:49:13;94292.75;;;13.06;55.17
65832;BME280;52593;42.648;23.332;2023-04-22T08:51:40;94295.22;;;13.08;55.41
65832;BME280;52593;42.648;23.332;2023-04-22T08:54:06;94296.06;;;13.15;55.83
65832;BME280;52593;42.648;23.332;2023-04-22T08:56:33;94294.63;;;13.26;55.97
65832;BME280;52593;42.648;23.332;2023-04-22T08:59:02;94285.53;;;13.27;55.09
65832;BME280;52593;42.648;23.332;2023-04-22T09:01:30;94280.59;;;13.44;56.51
65832;BME280;52593;42.648;23.332;2023-04-22T09:03:58;94272.91;;;13.67;54.54
65832;BME280;52593;42.648;23.332;2023-04-22T09:06:23;94282.59;;;13.88;51.25
65832;BME280;52593;42.648;23.332;2023-04-22T09:08:49;94275.75;;;13.99;50.87
65832;BME280;52593;42.648;23.332;2023-04-22T09:11:16;94287.34;;;14.00;50.61
65832;BME280;52593;42.648;23.332;2023-04-22T09:13:41;94267.72;;;13.93;51.04
65832;BME280;52593;42.648;23.332;2023-04-22T09:16:07;94272.34;;;14.24;49.91
65832;BME280;52593;42.648;23.332;2023-04-22T09:18:41;94270.06;;;14.27;52.00
65832;BME280;52593;42.648;23.332;2023-04-22T09:21:07;94258.78;;;14.51;49.49
65832;BME280;52593;42.648;23.332;2023-04-22T09:23:42;94268.78;;;14.82;49.20
65832;BME280;52593;42.648;23.332;2023-04-22T09:26:08;94257.78;;;14.45;48.78
65832;BME280;52593;42.648;23.332;2023-04-22T09:28:35;94269.31;;;14.59;48.13
65832;BME280;52593;42.648;23.332;2023-04-22T09:31:02;94254.56;;;14.68;47.61
65832;BME280;52593;42.648;23.332;2023-04-22T09:33:27;94254.56;;;14.68;48.09
65832;BME280;52593;42.648;23.332;2023-04-22T09:35:55;94245.50;;;14.94;47.20
65832;BME280;52593;42.648;23.332;2023-04-22T09:38:20;94240.00;;;15.08;46.17
65832;BME280;52593;42.648;23.332;2023-04-22T09:40:46;94248.00;;;15.21;44.66
65832;BME280;52593;42.648;23.332;2023-04-22T09:43:17;94248.81;;;15.22;44.44
65832;BME280;52593;42.648;23.332;2023-04-22T09:45:44;94244.03;;;15.49;44.12
65832;BME280;52593;42.648;23.332;2023-04-22T09:48:17;94239.53;;;15.43;42.45
65832;BME280;52593;42.648;23.332;2023-04-22T09:50:46;94249.09;;;15.64;41.75
65832;BME280;52593;42.648;23.332;2023-04-22T09:53:15;94252.41;;;15.41;41.54
65832;BME280;52593;42.648;23.332;2023-04-22T09:55:43;94246.94;;;14.97;40.39
65832;BME280;52593;42.648;23.332;2023-04-22T09:58:13;94252.09;;;14.67;39.88
65832;BME280;52593;42.648;23.332;2023-04-22T10:00:41;94235.94;;;15.49;37.24
65832;BME280;52593;42.648;23.332;2023-04-22T10:03:07;94238.88;;;16.28;39.63
65832;BME280;52593;42.648;23.332;2023-04-22T10:05:34;94238.91;;;16.40;39.45
65832;BME280;52593;42.648;23.332;2023-04-22T10:08:05;94244.47;;;17.06;38.82
65832;BME280;52593;42.648;23.332;2023-04-22T10:10:32;94247.31;;;16.81;40.88
65832;BME280;52593;42.648;23.332;2023-04-22T10:12:58;94243.28;;;15.60;42.46
65832;BME280;52593;42.648;23.332;2023-04-22T10:15:25;94245.53;;;14.49;44.59
65832;BME280;52593;42.648;23.332;2023-04-22T10:17:52;94259.75;;;14.24;44.94
65832;BME280;52593;42.648;23.332;2023-04-22T10:20:19;94254.72;;;13.63;46.46
65832;BME280;52593;42.648;23.332;2023-04-22T10:22:45;94249.81;;;13.46;46.49
65832;BME280;52593;42.648;23.332;2023-04-22T10:25:22;94236.41;;;14.05;45.44
65832;BME280;52593;42.648;23.332;2023-04-22T10:28:08;94248.38;;;15.00;44.42
65832;BME280;52593;42.648;23.332;2023-04-22T10:30:38;94243.31;;;15.10;42.44
65832;BME280;52593;42.648;23.332;2023-04-22T10:38:38;94230.69;;;15.10;40.93
65832;BME280;52593;42.648;23.332;2023-04-22T10:41:03;94230.41;;;15.19;40.25
65832;BME280;52593;42.648;23.332;2023-04-22T10:43:58;94241.56;;;15.47;40.21
65832;BME280;52593;42.648;23.332;2023-04-22T10:48:56;94226.03;;;15.43;41.20
65832;BME280;52593;42.648;23.332;2023-04-22T10:54:07;94224.72;;;15.70;40.44
65832;BME280;52593;42.648;23.332;2023-04-22T10:56:32;94228.06;;;16.28;39.65
65832;BME280;52593;42.648;23.332;2023-04-22T10:58:57;94230.56;;;16.30;39.01
65832;BME280;52593;42.648;23.332;2023-04-22T11:01:26;94222.81;;;16.33;40.40
65832;BME280;52593;42.648;23.332;2023-04-22T11:03:52;94229.59;;;16.85;37.55
65832;BME280;52593;42.648;23.332;2023-04-22T11:06:19;94212.97;;;16.88;36.84
65832;BME280;52593;42.648;23.332;2023-04-22T11:08:49;94218.22;;;16.52;39.50
65832;BME280;52593;42.648;23.332;2023-04-22T11:11:31;94221.41;;;16.91;37.88
65832;BME280;52593;42.648;23.332;2023-04-22T11:13:56;94215.44;;;17.01;37.81
65832;BME280;52593;42.648;23.332;2023-04-22T11:16:23;94217.16;;;17.26;34.79
65832;BME280;52593;42.648;23.332;2023-04-22T11:18:48;94209.44;;;16.57;35.74
65832;BME280;52593;42.648;23.332;2023-04-22T11:21:13;94218.78;;;16.05;36.96
65832;BME280;52593;42.648;23.332;2023-04-22T11:23:48;94232.13;;;16.37;36.49
65832;BME280;52593;42.648;23.332;2023-04-22T11:26:14;94229.72;;;15.92;38.71
65832;BME280;52593;42.648;23.332;2023-04-22T11:28:46;94241.31;;;14.98;41.69
65832;BME280;52593;42.648;23.332;2023-04-22T11:31:13;94254.06;;;14.85;43.26
65832;BME280;52593;42.648;23.332;2023-04-22T11:33:39;94239.25;;;14.69;44.49
65832;BME280;52593;42.648;23.332;2023-04-22T11:36:11;94255.16;;;14.25;46.07
65832;BME280;52593;42.648;23.332;2023-04-22T11:38:37;94264.44;;;14.36;47.34
65832;BME280;52593;42.648;23.332;2023-04-22T11:41:02;94255.28;;;14.50;45.69
65832;BME280;52593;42.648;23.332;2023-04-22T11:43:29;94249.69;;;14.45;45.49
65832;BME280;52593;42.648;23.332;2023-04-22T11:45:55;94263.94;;;14.07;47.41
65832;BME280;52593;42.648;23.332;2023-04-22T11:48:21;94275.84;;;14.31;46.78
65832;BME280;52593;42.648;23.332;2023-04-22T11:50:46;94264.13;;;14.12;46.43
65832;BME280;52593;42.648;23.332;2023-04-22T11:53:17;94265.13;;;14.24;46.52
65832;BME280;52593;42.648;23.332;2023-04-22T11:55:44;94266.34;;;14.74;46.87
65832;BME280;52593;42.648;23.332;2023-04-22T11:58:11;94283.03;;;15.21;45.93
65832;BME280;52593;42.648;23.332;2023-04-22T12:00:40;94271.38;;;15.27;46.13
65832;BME280;52593;42.648;23.332;2023-04-22T12:03:14;94282.34;;;15.58;46.60
65832;BME280;52593;42.648;23.332;2023-04-22T12:08:32;94290.75;;;14.86;46.04
65832;BME280;52593;42.648;23.332;2023-04-22T12:10:59;94281.25;;;14.76;47.90
65832;BME280;52593;42.648;23.332;2023-04-22T12:16:12;94299.50;;;15.38;45.17
65832;BME280;52593;42.648;23.332;2023-04-22T12:18:39;94293.38;;;15.49;44.40
65832;BME280;52593;42.648;23.332;2023-04-22T12:24:01;94291.06;;;14.96;46.37
65832;BME280;52593;42.648;23.332;2023-04-22T12:26:27;94295.16;;;14.73;46.28
65832;BME280;52593;42.648;23.332;2023-04-22T12:28:54;94292.16;;;15.20;44.00
65832;BME280;52593;42.648;23.332;2023-04-22T12:31:20;94287.78;;;15.51;43.15
65832;BME280;52593;42.648;23.332;2023-04-22T12:33:46;94284.88;;;15.27;43.88
65832;BME280;52593;42.648;23.332;2023-04-22T12:36:12;94290.16;;;15.41;44.69
65832;BME280;52593;42.648;23.332;2023-04-22T12:38:37;94282.03;;;15.15;45.09
65832;BME280;52593;42.648;23.332;2023-04-22T12:41:04;94288.69;;;15.13;46.36
65832;BME280;52593;42.648;23.332;2023-04-22T12:43:31;94284.88;;;14.95;46.55
65832;BME280;52593;42.648;23.332;2023-04-22T12:45:59;94285.13;;;15.44;45.51
65832;BME280;52593;42.648;23.332;2023-04-22T12:48:24;94278.78;;;14.75;46.17
65832;BME280;52593;42.648;23.332;2023-04-22T12:50:50;94297.81;;;14.28;47.15
65832;BME280;52593;42.648;23.332;2023-04-22T12:53:15;94261.31;;;13.94;48.17
65832;BME280;52593;42.648;23.332;2023-04-22T12:55:41;94269.91;;;14.16;49.75
65832;BME280;52593;42.648;23.332;2023-04-22T12:58:07;94282.91;;;14.32;48.56
65832;BME280;52593;42.648;23.332;2023-04-22T13:00:32;94274.72;;;14.52;48.54
65832;BME280;52593;42.648;23.332;2023-04-22T13:02:58;94279.00;;;14.73;48.42
65832;BME280;52593;42.648;23.332;2023-04-22T13:05:23;94277.66;;;15.21;48.10
65832;BME280;52593;42.648;23.332;2023-04-22T13:07:49;94255.13;;;15.84;46.60
65832;BME280;52593;42.648;23.332;2023-04-22T13:10:15;94267.69;;;15.97;47.10